Time;durP1;ratioP1;P1;durP2;ratioP2;P2;SDS_P1;SDS_P2;PMS_P1;PMS_P2;Temp;Humidity;BMP_temperature;BMP_pressure;BME280_temperature;BME280_humidity;BME280_pressure;Samples;Min_cycle;Max_cycle;Signal;HPM_P1;HPM_P2
2022/01/06 00:02:14;;;;;;;6.90;5.15;;;;;;;;;;5004812;28;20174;-56
2022/01/06 00:04:41;;;;;;;6.32;5.63;;;;;;;;;;4992885;28;20205;-56
2022/01/06 00:07:06;;;;;;;5.93;4.90;;;;;;;;;;4990691;28;20199;-56
2022/01/06 00:09:32;;;;;;;7.10;5.25;;;;;;;;;;4997177;28;20182;-56
2022/01/06 00:11:57;;;;;;;5.65;5.15;;;;;;;;;;4992952;28;20187;-56
2022/01/06 00:14:34;;;;;;;6.68;5.80;;;;;;;;;;4978531;28;20641;-56
2022/01/06 00:17:17;;;;;;;8.88;6.50;;;;;;;;;;4999081;28;20236;-56
2022/01/06 00:25:11;;;;;;;8.68;6.10;;;;;;;;;;5000671;28;21050;-56
2022/01/06 00:27:36;;;;;;;9.45;6.55;;;;;;;;;;4999896;28;20171;-56
2022/01/06 00:30:01;;;;;;;7.20;6.25;;;;;;;;;;4996993;28;20649;-56
2022/01/06 00:32:26;;;;;;;10.57;8.63;;;;;;;;;;5000299;28;20242;-56
2022/01/06 00:34:51;;;;;;;12.45;7.82;;;;;;;;;;4978487;28;20195;-57
2022/01/06 00:37:17;;;;;;;9.15;7.30;;;;;;;;;;4998228;28;20632;-56
2022/01/06 00:39:42;;;;;;;10.07;6.80;;;;;;;;;;4997595;28;20183;-56
2022/01/06 00:42:07;;;;;;;10.27;6.47;;;;;;;;;;4992472;28;20179;-56
2022/01/06 00:44:33;;;;;;;7.93;6.47;;;;;;;;;;5000974;28;20619;-56
2022/01/06 00:46:58;;;;;;;10.90;6.72;;;;;;;;;;4993107;28;20762;-56
2022/01/06 00:49:23;;;;;;;7.45;6.28;;;;;;;;;;5002674;28;20175;-56
2022/01/06 00:51:48;;;;;;;9.25;7.18;;;;;;;;;;5003445;28;20202;-55
2022/01/06 00:54:14;;;;;;;10.30;6.68;;;;;;;;;;4987027;28;20206;-55
2022/01/06 00:56:39;;;;;;;9.02;6.38;;;;;;;;;;4978148;28;20856;-56
2022/01/06 00:59:04;;;;;;;12.18;6.25;;;;;;;;;;4979117;28;21108;-57
2022/01/06 01:01:30;;;;;;;7.68;6.03;;;;;;;;;;4989513;28;20179;-56
2022/01/06 01:03:55;;;;;;;12.27;6.85;;;;;;;;;;5007577;28;20266;-56
2022/01/06 01:06:21;;;;;;;11.07;6.90;;;;;;;;;;4997669;28;20578;-56
2022/01/06 01:08:46;;;;;;;8.50;5.85;;;;;;;;;;4998732;28;20186;-56
2022/01/06 01:11:11;;;;;;;7.28;5.82;;;;;;;;;;4997615;28;20191;-57
2022/01/06 01:13:53;;;;;;;9.32;6.75;;;;;;;;;;4993912;28;20182;-56
2022/01/06 01:16:25;;;;;;;8.40;5.80;;;;;;;;;;4980293;28;20182;-57
2022/01/06 01:18:51;;;;;;;8.02;6.35;;;;;;;;;;4996546;28;20281;-56
2022/01/06 01:21:17;;;;;;;9.00;6.03;;;;;;;;;;4997667;28;20280;-56
2022/01/06 01:23:42;;;;;;;8.45;5.68;;;;;;;;;;4991184;28;20183;-56
2022/01/06 01:26:07;;;;;;;7.55;4.43;;;;;;;;;;4995619;28;20198;-56
2022/01/06 01:28:42;;;;;;;6.38;4.32;;;;;;;;;;4992965;28;20183;-56
2022/01/06 01:31:25;;;;;;;4.60;4.20;;;;;;;;;;4995727;28;20202;-56
2022/01/06 01:33:52;;;;;;;6.28;5.00;;;;;;;;;;4987329;28;20172;-56
2022/01/06 01:36:17;;;;;;;5.93;4.97;;;;;;;;;;4997088;28;20206;-56
2022/01/06 01:38:43;;;;;;;8.95;6.85;;;;;;;;;;4996335;28;20269;-57
2022/01/06 01:41:09;;;;;;;11.80;6.90;;;;;;;;;;4998269;28;20274;-56
2022/01/06 01:43:34;;;;;;;7.88;6.13;;;;;;;;;;5002778;28;20197;-56
2022/01/06 01:46:09;;;;;;;9.10;6.15;;;;;;;;;;4998109;28;20253;-56
2022/01/06 01:48:36;;;;;;;6.05;5.45;;;;;;;;;;4994606;28;20183;-56
2022/01/06 01:51:02;;;;;;;7.03;5.97;;;;;;;;;;4998868;28;20194;-56
2022/01/06 01:53:27;;;;;;;6.53;5.82;;;;;;;;;;5007168;28;20285;-56
2022/01/06 01:55:52;;;;;;;6.75;5.00;;;;;;;;;;5002147;28;20187;-56
2022/01/06 01:58:18;;;;;;;9.27;7.50;;;;;;;;;;4980500;28;21011;-56
2022/01/06 02:00:43;;;;;;;9.73;7.43;;;;;;;;;;4977548;28;20364;-56
2022/01/06 02:03:08;;;;;;;9.57;7.38;;;;;;;;;;4980049;28;20179;-56
2022/01/06 02:05:34;;;;;;;11.70;8.23;;;;;;;;;;4990836;28;20775;-56
2022/01/06 02:08:00;;;;;;;8.02;6.90;;;;;;;;;;5003672;28;20194;-56
2022/01/06 02:10:26;;;;;;;9.60;7.28;;;;;;;;;;5005877;28;20214;-56
2022/01/06 02:12:54;;;;;;;11.52;7.68;;;;;;;;;;4999862;28;20249;-56
2022/01/06 02:15:19;;;;;;;8.55;6.55;;;;;;;;;;4995148;28;20250;-56
2022/01/06 02:17:45;;;;;;;10.20;7.70;;;;;;;;;;5004457;28;20199;-56
2022/01/06 02:20:13;;;;;;;12.32;7.45;;;;;;;;;;4995861;28;20664;-56
2022/01/06 02:22:39;;;;;;;11.10;7.85;;;;;;;;;;4997056;28;20179;-56
2022/01/06 02:25:11;;;;;;;10.75;8.23;;;;;;;;;;4998717;28;20256;-56
2022/01/06 02:27:37;;;;;;;13.45;9.02;;;;;;;;;;5000233;28;20596;-56
2022/01/06 02:30:02;;;;;;;13.02;9.05;;;;;;;;;;4996116;28;20185;-56
2022/01/06 02:32:28;;;;;;;15.05;9.25;;;;;;;;;;5013190;28;20622;-55
2022/01/06 02:34:53;;;;;;;12.75;8.90;;;;;;;;;;5001979;28;20198;-56
2022/01/06 02:37:18;;;;;;;11.27;8.38;;;;;;;;;;4999688;28;20256;-56
2022/01/06 02:39:44;;;;;;;9.88;7.80;;;;;;;;;;5006692;28;20183;-56
2022/01/06 02:42:09;;;;;;;10.75;6.82;;;;;;;;;;4979916;28;20211;-56
2022/01/06 02:44:37;;;;;;;10.23;7.30;;;;;;;;;;4981922;28;20653;-55
2022/01/06 02:47:03;;;;;;;9.85;6.82;;;;;;;;;;4992913;28;20731;-56
2022/01/06 02:49:28;;;;;;;7.93;6.60;;;;;;;;;;4997136;28;20293;-56
2022/01/06 02:51:54;;;;;;;9.55;6.60;;;;;;;;;;5000752;28;20182;-57
2022/01/06 02:54:19;;;;;;;9.07;6.55;;;;;;;;;;5001944;28;20238;-56
2022/01/06 02:56:44;;;;;;;7.95;6.35;;;;;;;;;;5002434;28;20185;-56
2022/01/06 02:59:10;;;;;;;9.38;6.13;;;;;;;;;;4993908;28;21012;-56
2022/01/06 03:01:39;;;;;;;8.23;6.43;;;;;;;;;;4985002;28;20187;-57
2022/01/06 03:04:04;;;;;;;10.73;7.05;;;;;;;;;;4999733;28;20179;-58
2022/01/06 03:06:30;;;;;;;12.32;7.07;;;;;;;;;;5003241;28;20213;-56
2022/01/06 03:08:55;;;;;;;8.05;6.30;;;;;;;;;;5021957;28;20179;-56
2022/01/06 03:11:25;;;;;;;10.57;6.90;;;;;;;;;;4999420;28;20206;-56
2022/01/06 03:13:50;;;;;;;10.32;7.32;;;;;;;;;;4995812;28;20901;-57
2022/01/06 03:16:16;;;;;;;10.15;6.90;;;;;;;;;;4996147;28;20184;-56
2022/01/06 03:18:41;;;;;;;8.02;6.25;;;;;;;;;;4998548;28;20245;-56
2022/01/06 03:21:06;;;;;;;9.43;6.63;;;;;;;;;;5001898;28;20180;-56
2022/01/06 03:23:31;;;;;;;9.27;5.60;;;;;;;;;;4998585;28;20191;-57
2022/01/06 03:25:56;;;;;;;6.90;5.50;;;;;;;;;;4999944;28;20199;-57
2022/01/06 03:28:22;;;;;;;7.25;5.63;;;;;;;;;;4998594;28;20238;-57
2022/01/06 03:30:47;;;;;;;7.05;4.80;;;;;;;;;;5005064;28;20190;-57
2022/01/06 03:33:12;;;;;;;5.97;5.30;;;;;;;;;;5000358;28;20187;-56
2022/01/06 03:35:37;;;;;;;7.55;5.50;;;;;;;;;;4997059;28;20193;-57
2022/01/06 03:38:03;;;;;;;5.85;5.20;;;;;;;;;;4992317;28;20747;-57
2022/01/06 03:40:28;;;;;;;7.30;5.65;;;;;;;;;;5002129;28;20183;-56
2022/01/06 03:42:53;;;;;;;8.32;5.82;;;;;;;;;;4997411;28;20201;-57
2022/01/06 03:45:19;;;;;;;11.45;7.47;;;;;;;;;;4997841;28;20210;-56
2022/01/06 03:47:44;;;;;;;9.70;8.38;;;;;;;;;;4999884;28;20205;-57
2022/01/06 03:50:10;;;;;;;11.68;8.32;;;;;;;;;;5007006;28;20274;-56
2022/01/06 03:52:35;;;;;;;11.40;7.88;;;;;;;;;;4995142;28;20688;-57
2022/01/06 03:55:04;;;;;;;11.77;8.68;;;;;;;;;;5009085;28;20187;-57
2022/01/06 03:57:29;;;;;;;14.63;8.57;;;;;;;;;;5004984;28;20191;-56
2022/01/06 03:59:54;;;;;;;9.45;7.50;;;;;;;;;;4991445;28;20645;-56
2022/01/06 04:02:19;;;;;;;13.20;7.50;;;;;;;;;;4999392;28;20191;-56
2022/01/06 04:04:45;;;;;;;9.30;8.30;;;;;;;;;;4998566;28;20206;-57
2022/01/06 04:07:10;;;;;;;9.40;7.32;;;;;;;;;;4998486;28;20199;-56
2022/01/06 04:09:35;;;;;;;13.18;8.05;;;;;;;;;;5001142;28;20692;-56
2022/01/06 04:12:00;;;;;;;10.57;8.13;;;;;;;;;;5005617;28;20183;-56
2022/01/06 04:14:26;;;;;;;9.10;7.63;;;;;;;;;;5000516;28;20281;-56
2022/01/06 04:16:58;;;;;;;9.35;7.40;;;;;;;;;;4998465;28;20681;-56
2022/01/06 04:19:23;;;;;;;10.93;7.72;;;;;;;;;;4992512;28;20615;-56
2022/01/06 04:21:48;;;;;;;12.60;8.15;;;;;;;;;;5001188;28;20195;-56
2022/01/06 04:24:14;;;;;;;10.73;7.80;;;;;;;;;;4994894;28;20183;-57
2022/01/06 04:26:39;;;;;;;9.23;7.15;;;;;;;;;;4996577;28;20649;-55
2022/01/06 04:29:04;;;;;;;10.40;7.20;;;;;;;;;;4998477;28;20210;-56
2022/01/06 04:31:29;;;;;;;9.48;7.30;;;;;;;;;;5002158;28;20241;-56
2022/01/06 04:33:55;;;;;;;7.97;7.18;;;;;;;;;;5003784;28;20218;-56
2022/01/06 04:36:20;;;;;;;7.75;6.53;;;;;;;;;;4997775;28;20235;-55
2022/01/06 04:38:45;;;;;;;11.52;7.75;;;;;;;;;;5001070;28;20215;-56
2022/01/06 04:41:11;;;;;;;10.68;6.80;;;;;;;;;;4997659;28;20191;-56
2022/01/06 04:43:36;;;;;;;9.18;7.15;;;;;;;;;;4999059;28;20184;-56
2022/01/06 04:46:01;;;;;;;11.80;7.18;;;;;;;;;;4990734;28;20269;-55
2022/01/06 04:48:26;;;;;;;10.05;8.00;;;;;;;;;;4977708;28;20187;-55
2022/01/06 04:50:52;;;;;;;11.13;7.72;;;;;;;;;;4998450;28;20179;-56
2022/01/06 04:53:17;;;;;;;11.05;8.48;;;;;;;;;;5000892;28;20195;-57
2022/01/06 04:55:42;;;;;;;9.60;7.68;;;;;;;;;;4993691;28;20188;-56
2022/01/06 04:58:07;;;;;;;12.52;8.10;;;;;;;;;;4999622;28;20194;-56
2022/01/06 05:00:33;;;;;;;10.38;8.65;;;;;;;;;;5002994;28;20628;-56
2022/01/06 05:02:58;;;;;;;10.60;7.85;;;;;;;;;;4995183;28;20187;-57
2022/01/06 05:05:23;;;;;;;9.23;7.00;;;;;;;;;;5001974;28;20193;-56
2022/01/06 05:07:48;;;;;;;9.75;6.90;;;;;;;;;;4995876;28;20213;-56
2022/01/06 05:10:14;;;;;;;12.02;7.65;;;;;;;;;;4997228;28;21327;-56
2022/01/06 05:12:43;;;;;;;9.00;7.50;;;;;;;;;;4999763;28;20183;-56
2022/01/06 05:15:09;;;;;;;12.48;8.35;;;;;;;;;;5021012;28;20186;-56
2022/01/06 05:17:34;;;;;;;11.13;7.78;;;;;;;;;;4996497;28;20207;-56
2022/01/06 05:19:59;;;;;;;12.88;7.85;;;;;;;;;;5004546;28;20313;-56
2022/01/06 05:22:25;;;;;;;11.27;8.45;;;;;;;;;;5007033;28;20578;-56
2022/01/06 05:24:52;;;;;;;13.30;8.85;;;;;;;;;;4993110;28;20184;-56
2022/01/06 05:27:17;;;;;;;13.80;9.93;;;;;;;;;;4990164;28;20198;-56
2022/01/06 05:29:42;;;;;;;11.32;8.73;;;;;;;;;;4995007;28;20194;-56
2022/01/06 05:32:07;;;;;;;12.40;7.50;;;;;;;;;;4997570;28;20178;-56
2022/01/06 05:34:33;;;;;;;12.57;8.80;;;;;;;;;;4998148;28;20231;-56
2022/01/06 05:36:58;;;;;;;16.27;10.02;;;;;;;;;;4989140;28;20627;-56
2022/01/06 05:39:23;;;;;;;13.48;8.85;;;;;;;;;;5006215;28;20304;-56
2022/01/06 05:41:48;;;;;;;11.93;8.40;;;;;;;;;;5000383;28;20489;-56
2022/01/06 05:44:14;;;;;;;13.23;8.52;;;;;;;;;;5004584;28;20261;-57
2022/01/06 05:46:39;;;;;;;13.80;8.80;;;;;;;;;;5001317;28;20198;-57
2022/01/06 05:49:04;;;;;;;13.32;7.65;;;;;;;;;;5004225;28;20179;-56
2022/01/06 05:51:30;;;;;;;15.80;9.50;;;;;;;;;;4996404;28;20183;-56
2022/01/06 05:53:55;;;;;;;27.55;15.68;;;;;;;;;;4993520;28;20201;-57
2022/01/06 05:56:21;;;;;;;12.18;9.07;;;;;;;;;;4994097;28;20179;-56
2022/01/06 05:58:46;;;;;;;14.73;9.60;;;;;;;;;;4994457;28;20191;-57
2022/01/06 06:01:12;;;;;;;13.85;10.25;;;;;;;;;;4999249;28;20814;-57
2022/01/06 06:03:37;;;;;;;15.45;9.55;;;;;;;;;;5001068;28;20187;-57
2022/01/06 06:06:03;;;;;;;15.43;11.68;;;;;;;;;;4996116;28;20225;-57
2022/01/06 06:08:28;;;;;;;21.08;12.30;;;;;;;;;;4995521;28;20190;-57
2022/01/06 06:10:53;;;;;;;17.02;11.82;;;;;;;;;;5000972;28;20187;-56
2022/01/06 06:13:19;;;;;;;19.83;11.77;;;;;;;;;;5000561;28;20189;-57
2022/01/06 06:15:44;;;;;;;19.13;12.32;;;;;;;;;;5002243;28;20185;-56
2022/01/06 06:18:12;;;;;;;16.08;11.93;;;;;;;;;;4996320;28;20191;-56
2022/01/06 06:20:41;;;;;;;16.58;10.52;;;;;;;;;;4995442;28;20583;-56
2022/01/06 06:23:06;;;;;;;18.38;11.95;;;;;;;;;;5006213;28;20672;-56
2022/01/06 06:25:31;;;;;;;17.35;12.00;;;;;;;;;;5003767;28;20219;-56
2022/01/06 06:27:57;;;;;;;23.30;11.70;;;;;;;;;;5005895;28;20179;-55
2022/01/06 06:30:22;;;;;;;14.90;11.07;;;;;;;;;;4998615;28;20187;-55
2022/01/06 06:32:47;;;;;;;25.42;12.77;;;;;;;;;;4981579;28;20190;-56
2022/01/06 06:35:13;;;;;;;18.73;12.27;;;;;;;;;;4981011;28;20234;-55
2022/01/06 06:37:38;;;;;;;17.88;11.90;;;;;;;;;;4989259;28;20615;-55
2022/01/06 06:40:05;;;;;;;15.30;10.82;;;;;;;;;;5010340;28;20672;-56
2022/01/06 06:42:30;;;;;;;18.90;12.48;;;;;;;;;;5002634;28;20175;-56
2022/01/06 06:44:55;;;;;;;15.95;11.73;;;;;;;;;;4997106;28;20688;-57
2022/01/06 06:47:21;;;;;;;17.48;11.88;;;;;;;;;;5001838;28;20199;-56
2022/01/06 06:49:46;;;;;;;18.60;12.73;;;;;;;;;;5001359;28;20237;-57
2022/01/06 06:52:11;;;;;;;19.60;11.43;;;;;;;;;;4992739;28;20188;-56
2022/01/06 06:54:37;;;;;;;18.52;12.88;;;;;;;;;;4979054;28;20721;-56
2022/01/06 06:57:02;;;;;;;40.38;23.08;;;;;;;;;;4981611;28;20254;-57
2022/01/06 06:59:27;;;;;;;37.28;24.50;;;;;;;;;;4997040;28;20194;-57
2022/01/06 07:01:52;;;;;;;33.55;22.92;;;;;;;;;;5001342;28;21203;-57
2022/01/06 07:04:18;;;;;;;29.00;19.33;;;;;;;;;;5003290;28;20220;-57
2022/01/06 07:06:43;;;;;;;31.13;19.35;;;;;;;;;;5003001;28;20196;-57
2022/01/06 07:09:08;;;;;;;43.50;26.33;;;;;;;;;;4999182;28;20190;-57
2022/01/06 07:11:33;;;;;;;41.60;24.27;;;;;;;;;;4994310;28;20645;-57
2022/01/06 07:13:59;;;;;;;56.85;31.13;;;;;;;;;;4998235;28;21013;-57
2022/01/06 07:16:24;;;;;;;50.45;27.13;;;;;;;;;;4999407;28;20225;-57
2022/01/06 07:18:49;;;;;;;49.05;24.70;;;;;;;;;;5001204;28;20905;-57
2022/01/06 07:21:15;;;;;;;40.05;19.88;;;;;;;;;;5007598;28;20225;-56
2022/01/06 07:23:40;;;;;;;39.10;21.77;;;;;;;;;;4993437;28;20184;-57
2022/01/06 07:26:05;;;;;;;33.47;19.67;;;;;;;;;;5002659;28;20755;-57
2022/01/06 07:28:31;;;;;;;36.17;18.90;;;;;;;;;;4999899;28;20270;-57
2022/01/06 07:30:56;;;;;;;39.33;19.75;;;;;;;;;;5004837;28;20226;-57
2022/01/06 07:33:21;;;;;;;43.72;25.45;;;;;;;;;;5001840;28;20271;-57
2022/01/06 07:35:47;;;;;;;53.63;29.70;;;;;;;;;;4997956;28;20222;-57
2022/01/06 07:38:12;;;;;;;57.17;33.88;;;;;;;;;;4998805;28;20261;-57
2022/01/06 07:40:37;;;;;;;52.20;31.92;;;;;;;;;;5003032;28;20214;-57
2022/01/06 07:43:02;;;;;;;50.28;32.72;;;;;;;;;;5006461;28;20183;-57
2022/01/06 07:45:28;;;;;;;43.67;25.67;;;;;;;;;;4999479;28;20187;-57
2022/01/06 07:48:02;;;;;;;41.95;24.95;;;;;;;;;;5007328;28;20183;-57
2022/01/06 07:50:28;;;;;;;44.03;26.23;;;;;;;;;;4999076;28;20671;-57
2022/01/06 07:52:54;;;;;;;42.42;25.67;;;;;;;;;;5000609;28;20199;-57
2022/01/06 07:55:19;;;;;;;41.28;26.67;;;;;;;;;;5003625;28;20684;-56
2022/01/06 07:57:44;;;;;;;41.13;25.90;;;;;;;;;;4998996;28;20183;-56
2022/01/06 08:00:10;;;;;;;42.45;23.73;;;;;;;;;;4999789;28;20179;-57
2022/01/06 08:02:35;;;;;;;32.20;20.95;;;;;;;;;;5000769;28;20219;-57
2022/01/06 08:05:00;;;;;;;31.90;19.80;;;;;;;;;;4996886;28;20575;-56
2022/01/06 08:07:26;;;;;;;33.33;19.90;;;;;;;;;;5005209;28;20211;-56
2022/01/06 08:09:51;;;;;;;30.25;18.70;;;;;;;;;;5001057;28;20171;-56
2022/01/06 08:12:16;;;;;;;25.65;16.60;;;;;;;;;;4996056;28;20716;-55
2022/01/06 08:14:41;;;;;;;15.07;10.55;;;;;;;;;;4996502;28;20218;-56
2022/01/06 08:17:07;;;;;;;22.13;13.63;;;;;;;;;;4991790;28;20242;-56
2022/01/06 08:19:32;;;;;;;15.90;10.85;;;;;;;;;;4977279;28;20175;-56
2022/01/06 08:21:57;;;;;;;17.35;11.65;;;;;;;;;;4980444;28;20192;-56
2022/01/06 08:24:22;;;;;;;39.63;21.38;;;;;;;;;;5005111;28;20183;-56
2022/01/06 08:26:48;;;;;;;45.90;27.38;;;;;;;;;;4992004;28;20211;-56
2022/01/06 08:29:13;;;;;;;47.25;26.80;;;;;;;;;;4994372;28;20186;-56
2022/01/06 08:31:38;;;;;;;53.88;34.55;;;;;;;;;;5004182;28;20642;-55
2022/01/06 08:34:06;;;;;;;68.72;42.10;;;;;;;;;;4993561;28;20183;-55
2022/01/06 08:36:31;;;;;;;91.75;53.35;;;;;;;;;;4997118;28;20207;-56
2022/01/06 08:38:56;;;;;;;90.50;52.65;;;;;;;;;;4999615;28;20249;-56
2022/01/06 08:41:21;;;;;;;112.22;67.05;;;;;;;;;;4997909;28;20195;-55
2022/01/06 08:43:47;;;;;;;108.82;59.75;;;;;;;;;;4998836;28;20192;-55
2022/01/06 08:46:12;;;;;;;97.00;58.72;;;;;;;;;;5001074;28;20203;-56
2022/01/06 08:48:37;;;;;;;95.85;60.40;;;;;;;;;;5005644;28;20187;-56
2022/01/06 08:51:02;;;;;;;81.60;45.83;;;;;;;;;;4989863;28;20241;-57
2022/01/06 08:53:28;;;;;;;74.07;41.63;;;;;;;;;;5002038;28;20198;-57
2022/01/06 08:55:53;;;;;;;73.43;45.80;;;;;;;;;;5002659;28;20182;-57
2022/01/06 08:58:18;;;;;;;53.30;34.17;;;;;;;;;;4993059;28;20220;-57
2022/01/06 09:00:44;;;;;;;47.38;30.65;;;;;;;;;;4977191;28;20187;-57
2022/01/06 09:03:09;;;;;;;49.88;29.02;;;;;;;;;;4978435;28;20847;-57
2022/01/06 09:05:35;;;;;;;96.47;63.08;;;;;;;;;;4984022;28;20184;-56
2022/01/06 09:08:00;;;;;;;45.25;28.30;;;;;;;;;;5001777;28;20274;-56
2022/01/06 09:10:29;;;;;;;38.83;23.75;;;;;;;;;;4993760;28;20176;-55
2022/01/06 09:12:55;;;;;;;39.25;23.70;;;;;;;;;;5006096;28;20179;-55
2022/01/06 09:15:20;;;;;;;39.22;25.77;;;;;;;;;;5004376;28;20677;-56
2022/01/06 09:17:45;;;;;;;37.40;24.90;;;;;;;;;;4993507;28;20549;-55
2022/01/06 09:20:11;;;;;;;38.95;25.67;;;;;;;;;;5000763;28;20179;-58
2022/01/06 09:22:36;;;;;;;47.55;26.52;;;;;;;;;;4996535;28;20270;-56
2022/01/06 09:25:01;;;;;;;41.60;27.27;;;;;;;;;;4998653;28;20171;-55
2022/01/06 09:27:29;;;;;;;34.90;25.00;;;;;;;;;;5000615;28;20689;-57
2022/01/06 09:29:55;;;;;;;42.05;28.13;;;;;;;;;;5004754;28;20668;-57
2022/01/06 09:32:20;;;;;;;42.50;27.90;;;;;;;;;;4994928;28;20174;-56
2022/01/06 09:34:45;;;;;;;45.90;29.55;;;;;;;;;;4991991;28;20334;-56
2022/01/06 09:37:11;;;;;;;44.78;31.02;;;;;;;;;;5000536;28;20176;-56
2022/01/06 09:39:36;;;;;;;43.72;27.33;;;;;;;;;;5003056;28;21000;-56
2022/01/06 09:42:02;;;;;;;43.78;30.13;;;;;;;;;;5012643;28;20187;-56
2022/01/06 09:44:27;;;;;;;45.70;30.60;;;;;;;;;;4996384;28;20190;-56
2022/01/06 09:46:54;;;;;;;49.47;27.85;;;;;;;;;;5000910;28;20213;-56
2022/01/06 09:49:20;;;;;;;44.95;27.52;;;;;;;;;;4991028;28;20187;-57
2022/01/06 09:51:46;;;;;;;43.78;25.80;;;;;;;;;;4993529;28;20186;-56
2022/01/06 09:54:11;;;;;;;55.28;26.88;;;;;;;;;;4997019;28;20245;-56
2022/01/06 09:56:37;;;;;;;42.97;27.92;;;;;;;;;;5001935;28;20640;-56
2022/01/06 09:59:04;;;;;;;45.03;29.92;;;;;;;;;;4993892;28;20194;-58
2022/01/06 10:01:29;;;;;;;82.75;49.22;;;;;;;;;;5004674;28;21113;-56
2022/01/06 10:03:54;;;;;;;113.95;54.00;;;;;;;;;;4995497;28;20183;-57
2022/01/06 10:06:24;;;;;;;45.22;30.73;;;;;;;;;;4997471;28;20261;-56
2022/01/06 10:08:59;;;;;;;42.15;29.23;;;;;;;;;;5002488;28;20178;-56
2022/01/06 10:11:26;;;;;;;49.13;32.30;;;;;;;;;;4989932;28;20195;-56
2022/01/06 10:13:56;;;;;;;50.10;32.00;;;;;;;;;;4998241;28;20194;-56
2022/01/06 10:16:22;;;;;;;51.55;32.30;;;;;;;;;;5003424;28;20271;-56
2022/01/06 10:19:02;;;;;;;48.25;31.77;;;;;;;;;;4996628;28;20267;-56
2022/01/06 10:21:32;;;;;;;53.53;32.35;;;;;;;;;;4995057;28;20696;-56
2022/01/06 10:23:58;;;;;;;55.45;34.92;;;;;;;;;;4983783;28;20194;-56
2022/01/06 10:26:24;;;;;;;57.03;34.00;;;;;;;;;;4996254;28;20663;-56
2022/01/06 10:28:50;;;;;;;55.97;34.80;;;;;;;;;;5000021;28;20179;-56
2022/01/06 10:31:18;;;;;;;65.55;35.40;;;;;;;;;;4995446;28;20203;-57
2022/01/06 10:33:43;;;;;;;266.63;114.32;;;;;;;;;;4988094;28;20585;-57
2022/01/06 10:36:09;;;;;;;71.43;43.85;;;;;;;;;;4988660;28;20199;-56
2022/01/06 10:38:34;;;;;;;57.95;39.13;;;;;;;;;;4988678;28;20679;-57
2022/01/06 10:41:13;;;;;;;62.03;38.35;;;;;;;;;;5002486;28;20183;-56
2022/01/06 10:43:38;;;;;;;54.97;34.65;;;;;;;;;;4988452;28;20179;-56
2022/01/06 10:46:03;;;;;;;52.78;34.95;;;;;;;;;;4976986;28;20887;-56
2022/01/06 10:48:29;;;;;;;61.40;39.85;;;;;;;;;;4979348;28;20180;-56
2022/01/06 10:50:58;;;;;;;52.90;34.45;;;;;;;;;;4987080;28;20171;-56
2022/01/06 10:53:23;;;;;;;45.47;31.33;;;;;;;;;;4991956;28;20258;-56
2022/01/06 10:55:48;;;;;;;45.85;32.90;;;;;;;;;;4999977;28;20791;-56
2022/01/06 10:58:18;;;;;;;47.00;32.67;;;;;;;;;;4999442;28;20270;-57
2022/01/06 11:00:52;;;;;;;46.35;29.70;;;;;;;;;;4998586;28;20186;-57
2022/01/06 11:03:17;;;;;;;42.88;28.15;;;;;;;;;;5007878;28;20193;-56
2022/01/06 11:05:45;;;;;;;44.33;27.67;;;;;;;;;;4994494;28;20208;-56
2022/01/06 11:08:12;;;;;;;42.50;27.35;;;;;;;;;;4992668;28;20175;-56
2022/01/06 11:10:45;;;;;;;42.08;27.58;;;;;;;;;;4984036;28;20176;-55
2022/01/06 11:13:10;;;;;;;45.45;29.75;;;;;;;;;;4994297;28;20179;-56
2022/01/06 11:15:36;;;;;;;49.45;30.63;;;;;;;;;;4991327;28;20241;-56
2022/01/06 11:18:03;;;;;;;52.70;30.65;;;;;;;;;;5002235;28;20187;-57
2022/01/06 11:20:29;;;;;;;46.45;28.17;;;;;;;;;;5001823;28;20582;-57
2022/01/06 11:22:56;;;;;;;41.63;26.55;;;;;;;;;;5000689;28;20187;-56
2022/01/06 11:25:35;;;;;;;44.50;29.80;;;;;;;;;;4998220;28;20602;-56
2022/01/06 11:28:12;;;;;;;48.47;31.17;;;;;;;;;;4979356;28;21047;-56
2022/01/06 11:30:39;;;;;;;48.03;30.13;;;;;;;;;;4999600;28;20258;-56
2022/01/06 11:33:04;;;;;;;60.53;36.40;;;;;;;;;;4999652;28;20191;-57
2022/01/06 11:35:35;;;;;;;57.40;37.45;;;;;;;;;;4996351;28;20282;-56
2022/01/06 11:38:01;;;;;;;51.83;32.85;;;;;;;;;;4999650;28;20172;-56
2022/01/06 11:40:33;;;;;;;44.72;25.73;;;;;;;;;;4991945;28;20179;-57
2022/01/06 11:42:58;;;;;;;46.50;26.33;;;;;;;;;;5003812;28;20183;-57
2022/01/06 11:45:24;;;;;;;47.72;26.10;;;;;;;;;;5003088;28;20179;-56
2022/01/06 11:48:07;;;;;;;43.70;26.48;;;;;;;;;;5002557;28;20261;-56
2022/01/06 11:50:36;;;;;;;49.65;31.42;;;;;;;;;;4998677;28;20183;-56
2022/01/06 11:53:03;;;;;;;42.08;27.63;;;;;;;;;;5001276;28;20213;-57
2022/01/06 11:55:31;;;;;;;43.75;29.10;;;;;;;;;;4998454;28;20415;-57
2022/01/06 11:58:06;;;;;;;53.42;31.95;;;;;;;;;;4996159;28;20593;-57
2022/01/06 12:00:31;;;;;;;83.53;40.15;;;;;;;;;;5000675;28;20190;-57
2022/01/06 12:03:02;;;;;;;70.00;34.70;;;;;;;;;;4995087;28;20183;-57
2022/01/06 12:05:28;;;;;;;54.53;31.77;;;;;;;;;;4994123;28;20188;-57
2022/01/06 12:07:54;;;;;;;47.10;30.83;;;;;;;;;;4995026;28;20589;-57
2022/01/06 12:10:20;;;;;;;59.13;34.67;;;;;;;;;;4997326;28;20181;-57
2022/01/06 12:12:47;;;;;;;52.97;37.80;;;;;;;;;;4999613;28;21055;-57
2022/01/06 12:15:17;;;;;;;49.83;32.60;;;;;;;;;;5001188;28;20186;-56
2022/01/06 12:17:52;;;;;;;52.78;30.15;;;;;;;;;;5001553;28;20197;-56
2022/01/06 12:20:18;;;;;;;50.30;31.83;;;;;;;;;;5005751;28;20189;-56
2022/01/06 12:22:43;;;;;;;54.50;32.35;;;;;;;;;;5001925;28;20174;-56
2022/01/06 12:25:09;;;;;;;48.00;31.65;;;;;;;;;;5000317;28;20210;-56
2022/01/06 12:27:43;;;;;;;51.78;32.22;;;;;;;;;;4997719;28;20210;-56
2022/01/06 12:30:08;;;;;;;54.80;35.55;;;;;;;;;;5001924;28;20179;-56
2022/01/06 12:32:34;;;;;;;63.25;35.17;;;;;;;;;;4998020;28;20610;-58
2022/01/06 12:34:59;;;;;;;56.70;35.17;;;;;;;;;;4999944;28;20746;-56
2022/01/06 12:37:25;;;;;;;51.38;36.25;;;;;;;;;;4994973;28;20184;-55
2022/01/06 12:39:50;;;;;;;58.28;37.33;;;;;;;;;;5002065;28;20179;-56
2022/01/06 12:42:16;;;;;;;66.47;36.85;;;;;;;;;;4997530;28;21083;-57
2022/01/06 12:44:41;;;;;;;52.28;35.22;;;;;;;;;;5001051;28;20180;-57
2022/01/06 12:47:07;;;;;;;55.35;35.60;;;;;;;;;;5000295;28;20763;-56
2022/01/06 12:49:33;;;;;;;51.85;32.83;;;;;;;;;;5002360;28;20191;-56
2022/01/06 12:51:58;;;;;;;50.83;33.33;;;;;;;;;;4998576;28;20194;-56
2022/01/06 12:54:23;;;;;;;46.20;30.92;;;;;;;;;;4997981;28;20206;-56
2022/01/06 12:56:50;;;;;;;50.03;31.17;;;;;;;;;;5000931;28;20191;-56
2022/01/06 12:59:15;;;;;;;46.72;29.05;;;;;;;;;;5002459;28;20580;-57
2022/01/06 13:01:41;;;;;;;51.70;30.67;;;;;;;;;;5001187;28;20203;-57
2022/01/06 13:04:07;;;;;;;47.20;29.48;;;;;;;;;;4997982;28;20190;-57
2022/01/06 13:06:34;;;;;;;41.60;27.27;;;;;;;;;;5004805;28;20214;-56
2022/01/06 13:09:00;;;;;;;44.00;28.30;;;;;;;;;;4995707;28;20286;-57
2022/01/06 13:11:26;;;;;;;46.88;30.10;;;;;;;;;;5001143;28;20175;-57
2022/01/06 13:13:56;;;;;;;47.90;29.70;;;;;;;;;;4996713;28;20186;-57
2022/01/06 13:16:24;;;;;;;46.00;28.67;;;;;;;;;;4998196;28;20197;-57
2022/01/06 13:18:59;;;;;;;40.72;28.98;;;;;;;;;;5001063;28;20194;-56
2022/01/06 13:21:28;;;;;;;41.47;26.30;;;;;;;;;;5000577;28;20195;-57
2022/01/06 13:23:54;;;;;;;36.28;24.27;;;;;;;;;;5004518;28;20184;-56
2022/01/06 13:26:20;;;;;;;37.70;22.65;;;;;;;;;;4996064;28;20218;-56
2022/01/06 13:28:54;;;;;;;38.35;25.73;;;;;;;;;;4999657;28;20183;-57
2022/01/06 13:31:22;;;;;;;43.85;23.30;;;;;;;;;;5003139;28;20205;-57
2022/01/06 13:33:58;;;;;;;61.53;37.28;;;;;;;;;;4979197;28;20295;-56
2022/01/06 13:36:33;;;;;;;48.58;29.98;;;;;;;;;;4996774;28;20199;-56
2022/01/06 13:39:10;;;;;;;42.58;26.83;;;;;;;;;;5000824;28;20210;-56
2022/01/06 13:41:39;;;;;;;55.63;35.00;;;;;;;;;;5001388;28;20187;-56
2022/01/06 13:44:07;;;;;;;144.45;76.30;;;;;;;;;;4998000;28;20684;-56
2022/01/06 13:46:42;;;;;;;38.00;24.65;;;;;;;;;;4998069;28;20198;-56
2022/01/06 13:51:51;;;;;;;31.17;20.23;;;;;;;;;;5002042;28;20174;-56
2022/01/06 13:54:17;;;;;;;33.78;21.05;;;;;;;;;;4984687;28;20858;-55
2022/01/06 13:56:43;;;;;;;32.47;18.58;;;;;;;;;;4996129;28;20201;-56
2022/01/06 13:59:09;;;;;;;35.00;20.60;;;;;;;;;;4998362;28;20179;-56
2022/01/06 14:01:37;;;;;;;29.58;19.42;;;;;;;;;;4997756;28;20194;-56
2022/01/06 14:04:04;;;;;;;31.75;21.50;;;;;;;;;;5000713;28;20183;-56
2022/01/06 14:06:29;;;;;;;32.45;21.42;;;;;;;;;;4996713;28;20203;-56
2022/01/06 14:08:54;;;;;;;33.33;20.70;;;;;;;;;;4995581;28;20182;-56
2022/01/06 14:11:20;;;;;;;31.27;19.25;;;;;;;;;;5000623;28;20180;-56
2022/01/06 14:13:47;;;;;;;28.83;19.17;;;;;;;;;;5000036;28;20222;-56
2022/01/06 14:16:12;;;;;;;30.70;20.90;;;;;;;;;;4997146;28;20270;-56
2022/01/06 14:18:38;;;;;;;33.67;24.10;;;;;;;;;;4996684;28;20217;-56
2022/01/06 14:21:03;;;;;;;36.78;22.60;;;;;;;;;;4998915;28;20218;-57
2022/01/06 14:23:30;;;;;;;41.28;22.48;;;;;;;;;;5003632;28;20187;-56
2022/01/06 14:25:57;;;;;;;38.03;23.08;;;;;;;;;;4994964;28;20221;-57
2022/01/06 14:28:22;;;;;;;32.42;21.67;;;;;;;;;;4998714;28;20183;-57
2022/01/06 14:30:48;;;;;;;45.45;29.70;;;;;;;;;;5004838;28;20191;-57